sensor_id;sensor_type;location;lat;lon;timestamp;temperature;humidity
29203;DHT22;16245;51.170;4.884;2022-10-04T00:01:45;11.30;99.90
29203;DHT22;16245;51.170;4.884;2022-10-04T00:04:39;11.10;99.90
29203;DHT22;16245;51.170;4.884;2022-10-04T00:07:13;11.00;99.90
29203;DHT22;16245;51.170;4.884;2022-10-04T00:09:51;11.00;99.90
29203;DHT22;16245;51.170;4.884;2022-10-04T00:12:34;10.90;99.90
29203;DHT22;16245;51.170;4.884;2022-10-04T00:15:05;10.90;99.90
29203;DHT22;16245;51.170;4.884;2022-10-04T00:17:32;10.80;99.90
29203;DHT22;16245;51.170;4.884;2022-10-04T00:20:03;10.90;99.90
29203;DHT22;16245;51.170;4.884;2022-10-04T00:25:45;11.20;99.90
29203;DHT22;16245;51.170;4.884;2022-10-04T00:31:05;11.10;99.90
29203;DHT22;16245;51.170;4.884;2022-10-04T00:33:38;11.10;99.90
29203;DHT22;16245;51.170;4.884;2022-10-04T00:47:01;10.80;99.90
29203;DHT22;16245;51.170;4.884;2022-10-04T00:49:35;10.70;99.90
29203;DHT22;16245;51.170;4.884;2022-10-04T00:52:25;10.70;99.90
29203;DHT22;16245;51.170;4.884;2022-10-04T00:55:00;10.70;99.90
29203;DHT22;16245;51.170;4.884;2022-10-04T00:57:41;10.70;99.90
29203;DHT22;16245;51.170;4.884;2022-10-04T01:00:16;10.80;99.90
29203;DHT22;16245;51.170;4.884;2022-10-04T01:02:57;10.80;99.90
29203;DHT22;16245;51.170;4.884;2022-10-04T01:05:41;10.70;99.90
29203;DHT22;16245;51.170;4.884;2022-10-04T01:08:14;10.60;99.90
29203;DHT22;16245;51.170;4.884;2022-10-04T01:10:46;10.50;99.90
29203;DHT22;16245;51.170;4.884;2022-10-04T01:16:17;10.40;99.90
29203;DHT22;16245;51.170;4.884;2022-10-04T01:18:44;10.50;99.90
29203;DHT22;16245;51.170;4.884;2022-10-04T01:26:44;10.60;99.90
29203;DHT22;16245;51.170;4.884;2022-10-04T01:29:25;10.60;99.90
29203;DHT22;16245;51.170;4.884;2022-10-04T01:31:53;10.60;99.90
29203;DHT22;16245;51.170;4.884;2022-10-04T01:34:24;10.50;99.90
29203;DHT22;16245;51.170;4.884;2022-10-04T01:36:53;10.40;99.90
29203;DHT22;16245;51.170;4.884;2022-10-04T01:39:21;10.30;99.90
29203;DHT22;16245;51.170;4.884;2022-10-04T01:42:01;10.30;99.90
29203;DHT22;16245;51.170;4.884;2022-10-04T01:44:49;10.30;99.90
29203;DHT22;16245;51.170;4.884;2022-10-04T01:47:22;10.30;99.90
29203;DHT22;16245;51.170;4.884;2022-10-04T01:49:49;10.20;99.90
29203;DHT22;16245;51.170;4.884;2022-10-04T01:52:18;10.20;99.90
29203;DHT22;16245;51.170;4.884;2022-10-04T01:55:23;10.10;99.90
29203;DHT22;16245;51.170;4.884;2022-10-04T01:57:53;10.10;99.90
29203;DHT22;16245;51.170;4.884;2022-10-04T02:00:22;10.00;99.90
29203;DHT22;16245;51.170;4.884;2022-10-04T02:03:02;10.00;99.90
29203;DHT22;16245;51.170;4.884;2022-10-04T02:05:35;10.10;99.90
29203;DHT22;16245;51.170;4.884;2022-10-04T02:08:12;10.10;99.90
29203;DHT22;16245;51.170;4.884;2022-10-04T02:10:41;10.10;99.90
29203;DHT22;16245;51.170;4.884;2022-10-04T02:13:10;10.10;99.90
29203;DHT22;16245;51.170;4.884;2022-10-04T02:15:38;10.10;99.90
29203;DHT22;16245;51.170;4.884;2022-10-04T02:18:12;10.10;99.90
29203;DHT22;16245;51.170;4.884;2022-10-04T02:20:39;10.10;99.90
29203;DHT22;16245;51.170;4.884;2022-10-04T02:23:06;10.10;99.90
29203;DHT22;16245;51.170;4.884;2022-10-04T02:25:35;10.20;99.90
29203;DHT22;16245;51.170;4.884;2022-10-04T02:28:01;10.20;99.90
29203;DHT22;16245;51.170;4.884;2022-10-04T02:30:27;10.20;99.90
29203;DHT22;16245;51.170;4.884;2022-10-04T02:32:55;10.10;99.90
29203;DHT22;16245;51.170;4.884;2022-10-04T02:35:26;10.00;99.90
29203;DHT22;16245;51.170;4.884;2022-10-04T02:38:00;10.00;99.90
29203;DHT22;16245;51.170;4.884;2022-10-04T02:40:30;9.90;99.90
29203;DHT22;16245;51.170;4.884;2022-10-04T02:42:59;9.90;99.90
29203;DHT22;16245;51.170;4.884;2022-10-04T02:48:32;9.80;99.90
29203;DHT22;16245;51.170;4.884;2022-10-04T02:51:23;9.80;99.90
29203;DHT22;16245;51.170;4.884;2022-10-04T02:54:27;9.90;99.90
29203;DHT22;16245;51.170;4.884;2022-10-04T02:56:55;10.00;99.90
29203;DHT22;16245;51.170;4.884;2022-10-04T02:59:23;9.80;99.90
29203;DHT22;16245;51.170;4.884;2022-10-04T03:01:57;9.70;99.90
29203;DHT22;16245;51.170;4.884;2022-10-04T03:04:37;9.70;99.90
29203;DHT22;16245;51.170;4.884;2022-10-04T03:07:06;9.60;99.90
29203;DHT22;16245;51.170;4.884;2022-10-04T03:09:33;9.60;99.90
29203;DHT22;16245;51.170;4.884;2022-10-04T03:12:01;9.60;99.90
29203;DHT22;16245;51.170;4.884;2022-10-04T03:14:29;9.50;99.90
29203;DHT22;16245;51.170;4.884;2022-10-04T03:16:58;9.50;99.90
29203;DHT22;16245;51.170;4.884;2022-10-04T03:19:27;9.50;99.90
29203;DHT22;16245;51.170;4.884;2022-10-04T03:21:56;9.50;99.90
29203;DHT22;16245;51.170;4.884;2022-10-04T03:24:26;9.60;99.90
29203;DHT22;16245;51.170;4.884;2022-10-04T03:26:55;9.70;99.90
29203;DHT22;16245;51.170;4.884;2022-10-04T03:29:24;9.70;99.90
29203;DHT22;16245;51.170;4.884;2022-10-04T03:31:53;9.80;99.90
29203;DHT22;16245;51.170;4.884;2022-10-04T03:34:34;9.90;99.90
29203;DHT22;16245;51.170;4.884;2022-10-04T03:37:01;9.90;99.90
29203;DHT22;16245;51.170;4.884;2022-10-04T03:39:31;9.80;99.90
29203;DHT22;16245;51.170;4.884;2022-10-04T03:42:01;9.70;99.90
29203;DHT22;16245;51.170;4.884;2022-10-04T03:44:29;9.70;99.90
29203;DHT22;16245;51.170;4.884;2022-10-04T03:46:57;9.60;99.90
29203;DHT22;16245;51.170;4.884;2022-10-04T03:49:35;9.70;99.90
29203;DHT22;16245;51.170;4.884;2022-10-04T03:52:02;9.70;99.90
29203;DHT22;16245;51.170;4.884;2022-10-04T03:54:28;9.90;99.90
29203;DHT22;16245;51.170;4.884;2022-10-04T03:56:55;9.80;99.90
29203;DHT22;16245;51.170;4.884;2022-10-04T03:59:24;9.90;99.90
29203;DHT22;16245;51.170;4.884;2022-10-04T04:05:01;9.80;99.90
29203;DHT22;16245;51.170;4.884;2022-10-04T04:10:17;9.60;99.90
29203;DHT22;16245;51.170;4.884;2022-10-04T04:15:33;9.50;99.90
29203;DHT22;16245;51.170;4.884;2022-10-04T04:18:09;9.60;99.90
29203;DHT22;16245;51.170;4.884;2022-10-04T04:20:37;9.60;99.90
29203;DHT22;16245;51.170;4.884;2022-10-04T04:25:43;9.60;99.90
29203;DHT22;16245;51.170;4.884;2022-10-04T04:28:23;9.60;99.90
29203;DHT22;16245;51.170;4.884;2022-10-04T04:30:56;9.60;99.90
29203;DHT22;16245;51.170;4.884;2022-10-04T04:33:31;9.50;99.90
29203;DHT22;16245;51.170;4.884;2022-10-04T04:36:05;9.50;99.90
29203;DHT22;16245;51.170;4.884;2022-10-04T04:38:31;9.60;99.90
29203;DHT22;16245;51.170;4.884;2022-10-04T04:41:08;9.70;99.90
29203;DHT22;16245;51.170;4.884;2022-10-04T04:43:35;9.80;99.90
29203;DHT22;16245;51.170;4.884;2022-10-04T04:46:01;9.90;99.90
29203;DHT22;16245;51.170;4.884;2022-10-04T04:48:27;10.00;99.90
29203;DHT22;16245;51.170;4.884;2022-10-04T04:50:55;10.00;99.90
29203;DHT22;16245;51.170;4.884;2022-10-04T04:53:26;10.10;99.90
29203;DHT22;16245;51.170;4.884;2022-10-04T04:56:00;10.00;99.90
29203;DHT22;16245;51.170;4.884;2022-10-04T04:58:32;10.00;99.90
29203;DHT22;16245;51.170;4.884;2022-10-04T05:01:05;10.10;99.90
29203;DHT22;16245;51.170;4.884;2022-10-04T05:03:33;10.20;99.90
29203;DHT22;16245;51.170;4.884;2022-10-04T05:05:59;10.10;99.90
29203;DHT22;16245;51.170;4.884;2022-10-04T05:08:31;10.10;99.90
29203;DHT22;16245;51.170;4.884;2022-10-04T05:11:04;10.10;99.90
29203;DHT22;16245;51.170;4.884;2022-10-04T05:13:54;10.20;99.90
29203;DHT22;16245;51.170;4.884;2022-10-04T05:19:12;10.20;99.90
29203;DHT22;16245;51.170;4.884;2022-10-04T05:21:42;10.30;99.90
29203;DHT22;16245;51.170;4.884;2022-10-04T05:24:12;10.30;99.90
29203;DHT22;16245;51.170;4.884;2022-10-04T05:26:40;10.30;99.90
29203;DHT22;16245;51.170;4.884;2022-10-04T05:29:11;10.30;99.90
29203;DHT22;16245;51.170;4.884;2022-10-04T05:34:35;10.40;99.90
29203;DHT22;16245;51.170;4.884;2022-10-04T05:42:44;10.00;99.90
29203;DHT22;16245;51.170;4.884;2022-10-04T05:45:17;9.90;99.90
29203;DHT22;16245;51.170;4.884;2022-10-04T05:47:45;9.80;99.90
29203;DHT22;16245;51.170;4.884;2022-10-04T05:50:38;9.70;99.90
29203;DHT22;16245;51.170;4.884;2022-10-04T05:58:36;9.80;99.90
29203;DHT22;16245;51.170;4.884;2022-10-04T06:01:37;9.80;99.90
29203;DHT22;16245;51.170;4.884;2022-10-04T06:15:52;10.00;99.90
29203;DHT22;16245;51.170;4.884;2022-10-04T06:21:26;10.10;99.90
29203;DHT22;16245;51.170;4.884;2022-10-04T06:24:11;10.10;99.90
29203;DHT22;16245;51.170;4.884;2022-10-04T06:26:47;10.20;99.90
29203;DHT22;16245;51.170;4.884;2022-10-04T06:29:17;10.20;99.90
29203;DHT22;16245;51.170;4.884;2022-10-04T06:34:41;10.30;99.90
29203;DHT22;16245;51.170;4.884;2022-10-04T06:40:36;10.30;99.90
29203;DHT22;16245;51.170;4.884;2022-10-04T06:46:21;10.20;99.90
29203;DHT22;16245;51.170;4.884;2022-10-04T06:49:15;10.30;99.90
29203;DHT22;16245;51.170;4.884;2022-10-04T06:52:13;10.30;99.90
29203;DHT22;16245;51.170;4.884;2022-10-04T06:58:14;10.40;99.90
29203;DHT22;16245;51.170;4.884;2022-10-04T07:00:53;10.50;99.90
29203;DHT22;16245;51.170;4.884;2022-10-04T07:03:46;10.80;99.90
29203;DHT22;16245;51.170;4.884;2022-10-04T07:06:14;11.10;99.90
29203;DHT22;16245;51.170;4.884;2022-10-04T07:08:50;11.10;99.90
29203;DHT22;16245;51.170;4.884;2022-10-04T07:11:35;11.00;99.90
29203;DHT22;16245;51.170;4.884;2022-10-04T07:19:09;12.00;99.90
29203;DHT22;16245;51.170;4.884;2022-10-04T07:28:09;16.80;99.90
29203;DHT22;16245;51.170;4.884;2022-10-04T07:30:07;18.00;99.90
29203;DHT22;16245;51.170;4.884;2022-10-04T07:32:36;19.10;99.90
29203;DHT22;16245;51.170;4.884;2022-10-04T07:38:15;20.70;99.90
29203;DHT22;16245;51.170;4.884;2022-10-04T07:43:29;22.30;99.90
29203;DHT22;16245;51.170;4.884;2022-10-04T07:46:13;23.10;99.90
29203;DHT22;16245;51.170;4.884;2022-10-04T07:48:41;23.30;99.90
29203;DHT22;16245;51.170;4.884;2022-10-04T07:51:35;23.20;99.90
29203;DHT22;16245;51.170;4.884;2022-10-04T08:02:19;22.90;99.20
29203;DHT22;16245;51.170;4.884;2022-10-04T08:07:58;23.50;99.40
29203;DHT22;16245;51.170;4.884;2022-10-04T08:10:37;24.10;97.70
29203;DHT22;16245;51.170;4.884;2022-10-04T08:13:22;24.40;97.30
29203;DHT22;16245;51.170;4.884;2022-10-04T08:15:51;24.80;95.70
29203;DHT22;16245;51.170;4.884;2022-10-04T08:21:08;25.10;95.50
29203;DHT22;16245;51.170;4.884;2022-10-04T08:32:31;24.80;95.50
29203;DHT22;16245;51.170;4.884;2022-10-04T08:40:59;25.20;94.90
29203;DHT22;16245;51.170;4.884;2022-10-04T08:43:44;25.30;94.00
29203;DHT22;16245;51.170;4.884;2022-10-04T08:58:12;25.90;93.30
29203;DHT22;16245;51.170;4.884;2022-10-04T09:01:05;25.80;93.60
29203;DHT22;16245;51.170;4.884;2022-10-04T09:18:00;22.20;97.40
29203;DHT22;16245;51.170;4.884;2022-10-04T09:20:54;22.30;97.70
29203;DHT22;16245;51.170;4.884;2022-10-04T09:26:20;23.90;96.70
29203;DHT22;16245;51.170;4.884;2022-10-04T09:31:28;25.10;94.80
29203;DHT22;16245;51.170;4.884;2022-10-04T09:37:14;25.40;94.20
29203;DHT22;16245;51.170;4.884;2022-10-04T09:40:28;25.70;94.30
29203;DHT22;16245;51.170;4.884;2022-10-04T09:56:39;26.70;91.90
29203;DHT22;16245;51.170;4.884;2022-10-04T09:59:31;26.90;92.20
29203;DHT22;16245;51.170;4.884;2022-10-04T10:05:43;27.30;90.80
29203;DHT22;16245;51.170;4.884;2022-10-04T10:08:25;27.20;91.50
29203;DHT22;16245;51.170;4.884;2022-10-04T10:22:07;26.80;91.20
29203;DHT22;16245;51.170;4.884;2022-10-04T10:36:25;24.90;93.60
29203;DHT22;16245;51.170;4.884;2022-10-04T10:39:08;24.80;94.10
29203;DHT22;16245;51.170;4.884;2022-10-04T10:42:28;24.20;94.60
29203;DHT22;16245;51.170;4.884;2022-10-04T10:49:51;22.60;96.50
29203;DHT22;16245;51.170;4.884;2022-10-04T10:56:07;22.70;96.40
29203;DHT22;16245;51.170;4.884;2022-10-04T11:02:16;22.80;96.40
29203;DHT22;16245;51.170;4.884;2022-10-04T11:16:37;22.00;97.70
29203;DHT22;16245;51.170;4.884;2022-10-04T11:36:37;20.50;99.90
29203;DHT22;16245;51.170;4.884;2022-10-04T11:39:32;20.50;99.90
29203;DHT22;16245;51.170;4.884;2022-10-04T11:50:33;20.30;99.90
29203;DHT22;16245;51.170;4.884;2022-10-04T12:01:48;20.50;99.90
29203;DHT22;16245;51.170;4.884;2022-10-04T12:07:51;20.50;99.90
29203;DHT22;16245;51.170;4.884;2022-10-04T12:10:36;20.60;99.90
29203;DHT22;16245;51.170;4.884;2022-10-04T12:27:18;20.40;99.90
29203;DHT22;16245;51.170;4.884;2022-10-04T12:32:52;20.50;99.90
29203;DHT22;16245;51.170;4.884;2022-10-04T12:35:33;20.60;99.90
29203;DHT22;16245;51.170;4.884;2022-10-04T12:38:36;20.80;99.90
29203;DHT22;16245;51.170;4.884;2022-10-04T12:41:29;20.80;99.90
29203;DHT22;16245;51.170;4.884;2022-10-04T12:49:55;20.80;99.90
29203;DHT22;16245;51.170;4.884;2022-10-04T12:52:25;20.70;99.90
29203;DHT22;16245;51.170;4.884;2022-10-04T12:59:09;20.70;99.90
29203;DHT22;16245;51.170;4.884;2022-10-04T13:01:13;20.80;99.90
29203;DHT22;16245;51.170;4.884;2022-10-04T13:23:02;21.10;99.90
29203;DHT22;16245;51.170;4.884;2022-10-04T13:31:20;21.30;99.90
29203;DHT22;16245;51.170;4.884;2022-10-04T13:34:12;21.40;99.90
29203;DHT22;16245;51.170;4.884;2022-10-04T13:37:00;21.40;99.90
29203;DHT22;16245;51.170;4.884;2022-10-04T13:39:32;21.40;99.90
29203;DHT22;16245;51.170;4.884;2022-10-04T13:42:41;21.50;99.90
29203;DHT22;16245;51.170;4.884;2022-10-04T13:45:55;21.40;99.90
29203;DHT22;16245;51.170;4.884;2022-10-04T13:48:29;21.50;99.90
29203;DHT22;16245;51.170;4.884;2022-10-04T13:51:13;21.40;99.90
29203;DHT22;16245;51.170;4.884;2022-10-04T13:57:18;21.40;99.90
29203;DHT22;16245;51.170;4.884;2022-10-04T14:00:06;21.30;99.90
29203;DHT22;16245;51.170;4.884;2022-10-04T14:05:56;21.50;99.90
29203;DHT22;16245;51.170;4.884;2022-10-04T14:08:41;21.60;99.90
29203;DHT22;16245;51.170;4.884;2022-10-04T14:14:44;21.70;99.90
29203;DHT22;16245;51.170;4.884;2022-10-04T14:20:41;21.90;99.90
29203;DHT22;16245;51.170;4.884;2022-10-04T14:34:47;21.90;99.90
29203;DHT22;16245;51.170;4.884;2022-10-04T14:54:32;21.50;99.90
29203;DHT22;16245;51.170;4.884;2022-10-04T15:00:07;21.40;99.90
29203;DHT22;16245;51.170;4.884;2022-10-04T15:10:57;20.80;99.90
29203;DHT22;16245;51.170;4.884;2022-10-04T15:18:53;20.50;99.90
29203;DHT22;16245;51.170;4.884;2022-10-04T15:40:26;20.10;99.90
29203;DHT22;16245;51.170;4.884;2022-10-04T15:43:00;20.00;99.90
29203;DHT22;16245;51.170;4.884;2022-10-04T15:49:03;19.90;99.90
29203;DHT22;16245;51.170;4.884;2022-10-04T16:00:12;19.70;99.90
29203;DHT22;16245;51.170;4.884;2022-10-04T16:05:28;19.60;99.90
29203;DHT22;16245;51.170;4.884;2022-10-04T16:19:18;19.30;99.90
29203;DHT22;16245;51.170;4.884;2022-10-04T16:21:52;19.30;99.90
29203;DHT22;16245;51.170;4.884;2022-10-04T16:32:15;19.10;99.90
29203;DHT22;16245;51.170;4.884;2022-10-04T16:39:48;19.00;99.90
29203;DHT22;16245;51.170;4.884;2022-10-04T16:42:58;18.90;99.90
29203;DHT22;16245;51.170;4.884;2022-10-04T16:59:10;18.50;99.90
29203;DHT22;16245;51.170;4.884;2022-10-04T17:09:48;18.10;99.90
29203;DHT22;16245;51.170;4.884;2022-10-04T17:12:25;18.10;99.90
29203;DHT22;16245;51.170;4.884;2022-10-04T17:23:32;17.70;99.90
29203;DHT22;16245;51.170;4.884;2022-10-04T17:26:29;17.50;99.90
29203;DHT22;16245;51.170;4.884;2022-10-04T17:29:19;17.40;99.90
29203;DHT22;16245;51.170;4.884;2022-10-04T17:31:58;17.30;99.90
29203;DHT22;16245;51.170;4.884;2022-10-04T17:37:54;17.20;99.90
29203;DHT22;16245;51.170;4.884;2022-10-04T17:48:26;17.20;99.90
29203;DHT22;16245;51.170;4.884;2022-10-04T18:02:48;17.00;99.90
29203;DHT22;16245;51.170;4.884;2022-10-04T18:05:42;17.00;99.90
29203;DHT22;16245;51.170;4.884;2022-10-04T18:08:16;16.90;99.90
29203;DHT22;16245;51.170;4.884;2022-10-04T18:11:01;17.00;99.90
29203;DHT22;16245;51.170;4.884;2022-10-04T18:16:19;17.00;99.90
29203;DHT22;16245;51.170;4.884;2022-10-04T18:18:48;17.00;99.90
29203;DHT22;16245;51.170;4.884;2022-10-04T18:21:19;17.00;99.90
29203;DHT22;16245;51.170;4.884;2022-10-04T18:26:27;16.90;99.90
29203;DHT22;16245;51.170;4.884;2022-10-04T18:28:53;17.00;99.90
29203;DHT22;16245;51.170;4.884;2022-10-04T18:31:37;16.90;99.90
29203;DHT22;16245;51.170;4.884;2022-10-04T18:34:16;16.90;99.90
29203;DHT22;16245;51.170;4.884;2022-10-04T18:37:04;16.80;99.90
29203;DHT22;16245;51.170;4.884;2022-10-04T18:39:42;16.70;99.90
29203;DHT22;16245;51.170;4.884;2022-10-04T18:44:46;16.70;99.90
29203;DHT22;16245;51.170;4.884;2022-10-04T18:47:26;16.60;99.90
29203;DHT22;16245;51.170;4.884;2022-10-04T18:49:53;16.60;99.90
29203;DHT22;16245;51.170;4.884;2022-10-04T18:52:35;16.60;99.90
29203;DHT22;16245;51.170;4.884;2022-10-04T18:57:46;16.50;99.90
29203;DHT22;16245;51.170;4.884;2022-10-04T19:00:57;16.50;99.90
29203;DHT22;16245;51.170;4.884;2022-10-04T19:03:57;16.50;99.90
29203;DHT22;16245;51.170;4.884;2022-10-04T19:06:32;16.40;99.90
29203;DHT22;16245;51.170;4.884;2022-10-04T19:09:27;16.40;99.90
29203;DHT22;16245;51.170;4.884;2022-10-04T19:12:01;16.50;99.90
29203;DHT22;16245;51.170;4.884;2022-10-04T19:28:16;16.70;99.90
29203;DHT22;16245;51.170;4.884;2022-10-04T19:33:42;16.70;99.90
29203;DHT22;16245;51.170;4.884;2022-10-04T19:42:04;16.70;99.90
29203;DHT22;16245;51.170;4.884;2022-10-04T19:57:52;16.70;99.90
29203;DHT22;16245;51.170;4.884;2022-10-04T20:00:23;16.70;99.90
29203;DHT22;16245;51.170;4.884;2022-10-04T20:02:48;16.60;99.90
29203;DHT22;16245;51.170;4.884;2022-10-04T20:05:17;16.60;99.90
29203;DHT22;16245;51.170;4.884;2022-10-04T20:07:50;16.60;99.90
29203;DHT22;16245;51.170;4.884;2022-10-04T20:10:27;16.60;99.90
29203;DHT22;16245;51.170;4.884;2022-10-04T20:13:21;16.60;99.90
29203;DHT22;16245;51.170;4.884;2022-10-04T20:15:55;16.70;99.90
29203;DHT22;16245;51.170;4.884;2022-10-04T20:23:56;16.70;99.90
29203;DHT22;16245;51.170;4.884;2022-10-04T20:26:39;16.60;99.90
29203;DHT22;16245;51.170;4.884;2022-10-04T20:35:04;16.60;99.90
29203;DHT22;16245;51.170;4.884;2022-10-04T20:45:44;16.60;99.90
29203;DHT22;16245;51.170;4.884;2022-10-04T20:48:16;16.60;99.90
29203;DHT22;16245;51.170;4.884;2022-10-04T20:50:42;16.60;99.90
29203;DHT22;16245;51.170;4.884;2022-10-04T20:55:44;16.60;99.90
29203;DHT22;16245;51.170;4.884;2022-10-04T20:58:30;16.60;99.90
29203;DHT22;16245;51.170;4.884;2022-10-04T21:01:24;16.60;99.90
29203;DHT22;16245;51.170;4.884;2022-10-04T21:06:56;16.60;99.90
29203;DHT22;16245;51.170;4.884;2022-10-04T21:09:22;16.60;99.90
29203;DHT22;16245;51.170;4.884;2022-10-04T21:11:50;16.70;99.90
29203;DHT22;16245;51.170;4.884;2022-10-04T21:14:33;16.70;99.90
29203;DHT22;16245;51.170;4.884;2022-10-04T21:17:04;16.70;99.90
29203;DHT22;16245;51.170;4.884;2022-10-04T21:19:50;16.60;99.90
29203;DHT22;16245;51.170;4.884;2022-10-04T21:24:59;16.60;99.90
29203;DHT22;16245;51.170;4.884;2022-10-04T21:27:37;16.60;99.90
29203;DHT22;16245;51.170;4.884;2022-10-04T21:30:13;16.70;99.90
29203;DHT22;16245;51.170;4.884;2022-10-04T21:32:39;16.70;99.90
29203;DHT22;16245;51.170;4.884;2022-10-04T21:35:06;16.70;99.90
29203;DHT22;16245;51.170;4.884;2022-10-04T21:37:32;16.70;99.90
29203;DHT22;16245;51.170;4.884;2022-10-04T21:39:58;16.70;99.90
29203;DHT22;16245;51.170;4.884;2022-10-04T21:42:24;16.70;99.90
29203;DHT22;16245;51.170;4.884;2022-10-04T21:44:50;16.80;99.90
29203;DHT22;16245;51.170;4.884;2022-10-04T21:47:16;16.70;99.90
29203;DHT22;16245;51.170;4.884;2022-10-04T21:49:42;16.70;99.90
29203;DHT22;16245;51.170;4.884;2022-10-04T21:52:07;16.70;99.90
29203;DHT22;16245;51.170;4.884;2022-10-04T21:54:33;16.70;99.90
29203;DHT22;16245;51.170;4.884;2022-10-04T21:56:59;16.70;99.90
29203;DHT22;16245;51.170;4.884;2022-10-04T21:59:25;16.80;99.90
29203;DHT22;16245;51.170;4.884;2022-10-04T22:01:51;16.70;99.90
29203;DHT22;16245;51.170;4.884;2022-10-04T22:04:17;16.60;99.90
29203;DHT22;16245;51.170;4.884;2022-10-04T22:06:43;16.60;99.90
29203;DHT22;16245;51.170;4.884;2022-10-04T22:09:09;16.70;99.90
29203;DHT22;16245;51.170;4.884;2022-10-04T22:11:35;16.70;99.90
29203;DHT22;16245;51.170;4.884;2022-10-04T22:14:01;16.80;99.90
29203;DHT22;16245;51.170;4.884;2022-10-04T22:16:27;16.70;99.90
29203;DHT22;16245;51.170;4.884;2022-10-04T22:18:52;16.80;99.90
29203;DHT22;16245;51.170;4.884;2022-10-04T22:21:18;16.80;99.90
29203;DHT22;16245;51.170;4.884;2022-10-04T22:23:44;16.80;99.90
29203;DHT22;16245;51.170;4.884;2022-10-04T22:26:15;16.80;99.90
29203;DHT22;16245;51.170;4.884;2022-10-04T22:28:47;16.80;99.90
29203;DHT22;16245;51.170;4.884;2022-10-04T22:31:15;16.80;99.90
29203;DHT22;16245;51.170;4.884;2022-10-04T22:33:43;16.70;99.90
29203;DHT22;16245;51.170;4.884;2022-10-04T22:36:35;16.80;99.90
29203;DHT22;16245;51.170;4.884;2022-10-04T22:39:16;16.80;99.90
29203;DHT22;16245;51.170;4.884;2022-10-04T22:41:51;16.80;99.90
29203;DHT22;16245;51.170;4.884;2022-10-04T22:44:35;16.90;99.90
29203;DHT22;16245;51.170;4.884;2022-10-04T22:47:03;16.80;99.90
29203;DHT22;16245;51.170;4.884;2022-10-04T22:49:33;16.80;99.90
29203;DHT22;16245;51.170;4.884;2022-10-04T22:52:01;16.80;99.90
29203;DHT22;16245;51.170;4.884;2022-10-04T22:54:33;16.80;99.90
29203;DHT22;16245;51.170;4.884;2022-10-04T22:56:59;16.80;99.90
29203;DHT22;16245;51.170;4.884;2022-10-04T22:59:41;16.80;99.90
29203;DHT22;16245;51.170;4.884;2022-10-04T23:02:19;16.70;99.90
29203;DHT22;16245;51.170;4.884;2022-10-04T23:04:57;16.80;99.90
29203;DHT22;16245;51.170;4.884;2022-10-04T23:07:23;16.70;99.90
29203;DHT22;16245;51.170;4.884;2022-10-04T23:09:50;16.80;99.90
29203;DHT22;16245;51.170;4.884;2022-10-04T23:12:16;16.70;99.90
29203;DHT22;16245;51.170;4.884;2022-10-04T23:14:42;16.70;99.90
29203;DHT22;16245;51.170;4.884;2022-10-04T23:17:23;16.70;99.90
29203;DHT22;16245;51.170;4.884;2022-10-04T23:19:59;16.60;99.90
29203;DHT22;16245;51.170;4.884;2022-10-04T23:22:27;16.60;99.90
29203;DHT22;16245;51.170;4.884;2022-10-04T23:24:54;16.60;99.90
29203;DHT22;16245;51.170;4.884;2022-10-04T23:27:21;16.70;99.90
29203;DHT22;16245;51.170;4.884;2022-10-04T23:29:48;16.70;99.90
29203;DHT22;16245;51.170;4.884;2022-10-04T23:32:16;16.70;99.90
29203;DHT22;16245;51.170;4.884;2022-10-04T23:34:45;16.60;99.90
29203;DHT22;16245;51.170;4.884;2022-10-04T23:37:20;16.60;99.90
29203;DHT22;16245;51.170;4.884;2022-10-04T23:39:47;16.70;99.90
29203;DHT22;16245;51.170;4.884;2022-10-04T23:42:24;16.70;99.90
29203;DHT22;16245;51.170;4.884;2022-10-04T23:44:55;16.60;99.90
29203;DHT22;16245;51.170;4.884;2022-10-04T23:47:31;16.70;99.90
29203;DHT22;16245;51.170;4.884;2022-10-04T23:49:57;16.70;99.90
29203;DHT22;16245;51.170;4.884;2022-10-04T23:52:28;16.60;99.90
29203;DHT22;16245;51.170;4.884;2022-10-04T23:54:57;16.60;99.90
29203;DHT22;16245;51.170;4.884;2022-10-04T23:57:24;16.70;99.90
29203;DHT22;16245;51.170;4.884;2022-10-04T23:59:51;16.70;99.90
